Bishop, Texas
Current Conditions -  °F | °C
As of 3:56 AM on Sunday 25 Jan 2015 (Local Time) from KNQI Reporting Station
Clear Clear  
Wind Chill: 36°   Ceiling: Unl
Heat Index: 40°   Visibility: 10mi
Dew Point: 37°   Wind: 6mph
Humidity: 89%   Direction: 220°SW
Pressure: 30.11"   Gusts: NA
Location:  27.59°N, 97.8°W
Report Text: KNQI 250956Z AUTO 22005KT 10SM CLR 04/03 A3011 RMK AO2 SLP191 T00440028 TSNO $
Loading
Personal Weather Stations






























Interactive Weather Map New forecast layout! Learn more

10-Day Weather Forecast

Advertisements
Track Severe Weather on mobile